Impacts METAR Board
IDs:

KATL - Atlanta/Hartsfield-J, GA, US

Updated at: 0500 UTC 17 Aug 2018
Potential Impact None Slight Moderate High
Time 16/17Z 16/18Z 16/19Z 16/20Z 16/21Z 16/22Z 16/23Z 17/00Z 17/01Z 17/02Z 17/03Z 17/04Z 17/05Z
Temp88 89 90 90 89 89 87 85 81 79 77 76 75
Dewpt69 71 68 67 69 67 68 69 71 70 70 70 70
Altim30.18 30.17 30.16 30.15 30.13 30.13 30.14 30.14 30.16 30.17 30.18 30.20 30.19
VIS10 10 10 10 10 10 10 10 10 10 10 10 10
CIG300 -- 48 -- -- -- -- 250 250 250 250 250 250
CoverBKNSCTBKNSCTSCTSCTSCTBKNBKNBKNBKNBKNBKN
FltCatVFRVFRVFRVFRVFRVFRVFRVFRVFRVFRVFRVFRVFR
WX----------TS--------------
WDir00200190210200210210200210210210210
WSpd6 0 7 5 8 6 8 6 7 10 9 6 6
WGst-- -- -- -- -- -- -- -- -- -- -- -- --
Raw hourly METARs
KATL 161652Z VRB06KT 10SM FEW040 SCT250 BKN300 31/21 A3018 RMK AO2 SLP208 MDT CU SE-SW SW-NW T03110206
KATL 161752Z COR 00000KT 10SM SCT045 SCT250 32/22 A3017 RMK AO2 MDT CU ALQDS SLP206 T03170217 10322 20239 58004
KATL 161852Z 20007KT 150V230 10SM BKN048 BKN250 32/20 A3016 RMK AO2 SLP200 MDT CU OHD-N-E-S NW T03220200
KATL 161952Z 19005KT 10SM SCT050TCU SCT250 32/19 A3015 RMK AO2 LTG DSNT E AND SE SLP196 CB DSNT E-SE TCU N-NE-E T03220194
KATL 162052Z 21008KT 10SM SCT045TCU SCT250 32/21 A3013 RMK AO2 SLP192 CB DSNT E TCU N-NE-E T03170206 56014
KATL 162152Z 20006KT 10SM TS SCT045CB SCT250 32/19 A3013 RMK AO2 SLP192 TSB18 OCNL LTGICCG NE TS NE MOV NE T03170194
KATL 162252Z 21008KT 10SM FEW045TCU SCT250 31/20 A3014 RMK AO2 TSE08 SLP194 CB DSNT SW TCU NE T03060200
KATL 162352Z 21006KT 10SM FEW040 BKN250 29/21 A3014 RMK AO2 SLP195 T02940206 10328 20294 53002
KATL 170052Z 20007KT 10SM FEW080 BKN250 27/22 A3016 RMK AO2 SLP201 T02720217
KATL 170152Z 21010KT 10SM BKN250 26/21 A3017 RMK AO2 SLP205 T02610211
KATL 170252Z 21009KT 10SM BKN250 25/21 A3018 RMK AO2 SLP210 T02500211 51014
KATL 170352Z 21006KT 10SM BKN250 24/21 A3020 RMK AO2 SLP215 T02440211
KATL 170452Z 21006KT 10SM FEW150 BKN250 24/21 A3019 RMK AO2 SLP212 T02390211 403280228



Page loaded:  05:21 UTC  |   10:21 PM Pacific  |   11:21 PM Mountain  |   12:21 AM Central  |   01:21 AM Eastern

 

ADVISORIES

FORECASTS

FORECASTS

OBSERVATIONS

USER TOOLS

ABOUT US